sensor_id;sensor_type;location;lat;lon;timestamp;temperature;humidity
2260;DHT22;333;48.800;9.530;2024-01-06T00:01:33;6.20;99.60
2260;DHT22;333;48.800;9.530;2024-01-06T00:04:00;6.30;99.60
2260;DHT22;333;48.800;9.530;2024-01-06T00:06:27;6.30;99.60
2260;DHT22;333;48.800;9.530;2024-01-06T00:08:54;6.40;99.60
2260;DHT22;333;48.800;9.530;2024-01-06T00:11:21;6.50;99.60
2260;DHT22;333;48.800;9.530;2024-01-06T00:13:48;6.50;99.60
2260;DHT22;333;48.800;9.530;2024-01-06T00:16:16;6.50;99.60
2260;DHT22;333;48.800;9.530;2024-01-06T00:18:46;6.40;99.60
2260;DHT22;333;48.800;9.530;2024-01-06T00:21:13;6.30;99.60
2260;DHT22;333;48.800;9.530;2024-01-06T00:23:40;6.20;99.60
2260;DHT22;333;48.800;9.530;2024-01-06T00:26:07;6.30;99.60
2260;DHT22;333;48.800;9.530;2024-01-06T00:28:35;6.30;99.60
2260;DHT22;333;48.800;9.530;2024-01-06T00:31:02;6.30;99.60
2260;DHT22;333;48.800;9.530;2024-01-06T00:33:29;6.40;99.60
2260;DHT22;333;48.800;9.530;2024-01-06T00:35:57;6.40;99.60
2260;DHT22;333;48.800;9.530;2024-01-06T00:38:24;6.40;99.60
2260;DHT22;333;48.800;9.530;2024-01-06T00:40:51;6.30;99.60
2260;DHT22;333;48.800;9.530;2024-01-06T00:43:18;6.30;99.60
2260;DHT22;333;48.800;9.530;2024-01-06T00:45:45;6.40;99.60
2260;DHT22;333;48.800;9.530;2024-01-06T00:48:12;6.40;99.60
2260;DHT22;333;48.800;9.530;2024-01-06T00:50:40;6.40;99.60
2260;DHT22;333;48.800;9.530;2024-01-06T00:53:08;6.30;99.60
2260;DHT22;333;48.800;9.530;2024-01-06T00:55:35;6.40;99.60
2260;DHT22;333;48.800;9.530;2024-01-06T00:58:02;6.40;99.60
2260;DHT22;333;48.800;9.530;2024-01-06T01:00:29;6.50;99.60
2260;DHT22;333;48.800;9.530;2024-01-06T01:02:57;6.50;99.60
2260;DHT22;333;48.800;9.530;2024-01-06T01:05:24;6.50;99.60
2260;DHT22;333;48.800;9.530;2024-01-06T01:07:51;6.60;99.60
2260;DHT22;333;48.800;9.530;2024-01-06T01:10:19;6.60;99.60
2260;DHT22;333;48.800;9.530;2024-01-06T01:12:46;6.60;99.60
2260;DHT22;333;48.800;9.530;2024-01-06T01:15:13;6.40;99.60
2260;DHT22;333;48.800;9.530;2024-01-06T01:17:40;6.40;99.60
2260;DHT22;333;48.800;9.530;2024-01-06T01:20:08;6.50;99.60
2260;DHT22;333;48.800;9.530;2024-01-06T01:22:36;6.50;99.60
2260;DHT22;333;48.800;9.530;2024-01-06T01:25:03;6.50;99.60
2260;DHT22;333;48.800;9.530;2024-01-06T01:27:34;6.50;99.60
2260;DHT22;333;48.800;9.530;2024-01-06T01:30:02;6.30;99.60
2260;DHT22;333;48.800;9.530;2024-01-06T01:32:30;6.30;99.60
2260;DHT22;333;48.800;9.530;2024-01-06T01:34:57;6.20;99.60
2260;DHT22;333;48.800;9.530;2024-01-06T01:37:24;6.10;99.60
2260;DHT22;333;48.800;9.530;2024-01-06T01:39:51;6.00;99.60
2260;DHT22;333;48.800;9.530;2024-01-06T01:42:18;5.90;99.60
2260;DHT22;333;48.800;9.530;2024-01-06T01:44:46;5.90;99.60
2260;DHT22;333;48.800;9.530;2024-01-06T01:47:13;5.90;99.60
2260;DHT22;333;48.800;9.530;2024-01-06T01:49:44;6.00;99.60
2260;DHT22;333;48.800;9.530;2024-01-06T01:52:12;6.00;99.60
2260;DHT22;333;48.800;9.530;2024-01-06T01:54:40;6.10;99.60
2260;DHT22;333;48.800;9.530;2024-01-06T01:57:08;6.20;99.60
2260;DHT22;333;48.800;9.530;2024-01-06T01:59:36;6.20;99.60
2260;DHT22;333;48.800;9.530;2024-01-06T02:02:05;6.10;99.60
2260;DHT22;333;48.800;9.530;2024-01-06T02:04:32;6.00;99.60
2260;DHT22;333;48.800;9.530;2024-01-06T02:06:59;6.00;99.60
2260;DHT22;333;48.800;9.530;2024-01-06T02:09:26;6.00;99.60
2260;DHT22;333;48.800;9.530;2024-01-06T02:11:56;6.00;99.60
2260;DHT22;333;48.800;9.530;2024-01-06T02:14:22;6.00;99.60
2260;DHT22;333;48.800;9.530;2024-01-06T02:16:49;6.00;99.60
2260;DHT22;333;48.800;9.530;2024-01-06T02:19:17;6.00;99.60
2260;DHT22;333;48.800;9.530;2024-01-06T02:21:49;6.00;99.60
2260;DHT22;333;48.800;9.530;2024-01-06T02:24:16;6.00;99.60
2260;DHT22;333;48.800;9.530;2024-01-06T02:26:43;6.00;99.60
2260;DHT22;333;48.800;9.530;2024-01-06T02:29:10;5.90;99.60
2260;DHT22;333;48.800;9.530;2024-01-06T02:31:37;5.90;99.60
2260;DHT22;333;48.800;9.530;2024-01-06T02:34:04;6.00;99.60
2260;DHT22;333;48.800;9.530;2024-01-06T02:36:31;5.90;99.60
2260;DHT22;333;48.800;9.530;2024-01-06T02:39:00;5.80;99.60
2260;DHT22;333;48.800;9.530;2024-01-06T02:41:27;5.90;99.60
2260;DHT22;333;48.800;9.530;2024-01-06T02:43:54;5.90;99.60
2260;DHT22;333;48.800;9.530;2024-01-06T02:46:21;5.90;99.60
2260;DHT22;333;48.800;9.530;2024-01-06T02:48:49;5.90;99.60
2260;DHT22;333;48.800;9.530;2024-01-06T02:51:18;5.90;99.60
2260;DHT22;333;48.800;9.530;2024-01-06T02:53:45;5.90;99.60
2260;DHT22;333;48.800;9.530;2024-01-06T02:56:13;5.80;99.60
2260;DHT22;333;48.800;9.530;2024-01-06T02:58:40;5.60;99.60
2260;DHT22;333;48.800;9.530;2024-01-06T03:01:07;5.70;99.60
2260;DHT22;333;48.800;9.530;2024-01-06T03:03:34;5.60;99.60
2260;DHT22;333;48.800;9.530;2024-01-06T03:06:02;5.70;99.60
2260;DHT22;333;48.800;9.530;2024-01-06T03:08:29;5.50;99.60
2260;DHT22;333;48.800;9.530;2024-01-06T03:10:56;5.40;99.60
2260;DHT22;333;48.800;9.530;2024-01-06T03:13:25;5.50;99.60
2260;DHT22;333;48.800;9.530;2024-01-06T03:15:52;5.50;99.60
2260;DHT22;333;48.800;9.530;2024-01-06T03:18:19;5.60;99.60
2260;DHT22;333;48.800;9.530;2024-01-06T03:20:46;5.50;99.60
2260;DHT22;333;48.800;9.530;2024-01-06T03:23:12;5.50;99.60
2260;DHT22;333;48.800;9.530;2024-01-06T03:25:39;5.40;99.60
2260;DHT22;333;48.800;9.530;2024-01-06T03:28:06;5.40;99.60
2260;DHT22;333;48.800;9.530;2024-01-06T03:30:35;5.50;99.60
2260;DHT22;333;48.800;9.530;2024-01-06T03:33:02;5.70;99.60
2260;DHT22;333;48.800;9.530;2024-01-06T03:35:29;5.80;99.60
2260;DHT22;333;48.800;9.530;2024-01-06T03:37:56;5.80;99.60
2260;DHT22;333;48.800;9.530;2024-01-06T03:40:23;5.80;99.60
2260;DHT22;333;48.800;9.530;2024-01-06T03:42:50;5.70;99.60
2260;DHT22;333;48.800;9.530;2024-01-06T03:45:17;5.80;99.60
2260;DHT22;333;48.800;9.530;2024-01-06T03:47:45;5.50;99.60
2260;DHT22;333;48.800;9.530;2024-01-06T03:50:12;5.40;99.60
2260;DHT22;333;48.800;9.530;2024-01-06T03:52:39;5.40;99.60
2260;DHT22;333;48.800;9.530;2024-01-06T03:55:07;5.50;99.60
2260;DHT22;333;48.800;9.530;2024-01-06T03:57:34;5.50;99.60
2260;DHT22;333;48.800;9.530;2024-01-06T04:00:01;5.50;99.60
2260;DHT22;333;48.800;9.530;2024-01-06T04:02:28;5.60;99.60
2260;DHT22;333;48.800;9.530;2024-01-06T04:04:56;5.60;99.60
2260;DHT22;333;48.800;9.530;2024-01-06T04:07:24;5.60;99.60
2260;DHT22;333;48.800;9.530;2024-01-06T04:09:50;5.50;99.60
2260;DHT22;333;48.800;9.530;2024-01-06T04:12:19;5.60;99.60
2260;DHT22;333;48.800;9.530;2024-01-06T04:14:46;5.50;99.60
2260;DHT22;333;48.800;9.530;2024-01-06T04:17:14;5.50;99.60
2260;DHT22;333;48.800;9.530;2024-01-06T04:19:54;5.60;99.60
2260;DHT22;333;48.800;9.530;2024-01-06T04:22:22;5.70;99.60
2260;DHT22;333;48.800;9.530;2024-01-06T04:27:57;5.70;99.60
2260;DHT22;333;48.800;9.530;2024-01-06T04:30:24;5.70;99.60
2260;DHT22;333;48.800;9.530;2024-01-06T04:32:51;5.80;99.60
2260;DHT22;333;48.800;9.530;2024-01-06T04:35:20;5.70;99.60
2260;DHT22;333;48.800;9.530;2024-01-06T04:37:49;5.70;99.60
2260;DHT22;333;48.800;9.530;2024-01-06T04:40:16;5.70;99.60
2260;DHT22;333;48.800;9.530;2024-01-06T04:42:43;5.70;99.60
2260;DHT22;333;48.800;9.530;2024-01-06T04:45:10;5.80;99.60
2260;DHT22;333;48.800;9.530;2024-01-06T04:47:37;5.80;99.60
2260;DHT22;333;48.800;9.530;2024-01-06T04:50:05;5.70;99.60
2260;DHT22;333;48.800;9.530;2024-01-06T04:52:32;5.70;99.60
2260;DHT22;333;48.800;9.530;2024-01-06T04:55:00;5.60;99.60
2260;DHT22;333;48.800;9.530;2024-01-06T04:57:28;5.50;99.60
2260;DHT22;333;48.800;9.530;2024-01-06T04:59:56;5.40;99.60
2260;DHT22;333;48.800;9.530;2024-01-06T05:02:23;5.30;99.60
2260;DHT22;333;48.800;9.530;2024-01-06T05:04:51;5.20;99.60
2260;DHT22;333;48.800;9.530;2024-01-06T05:07:18;5.20;99.60
2260;DHT22;333;48.800;9.530;2024-01-06T05:10:02;5.30;99.60
2260;DHT22;333;48.800;9.530;2024-01-06T05:12:29;5.40;99.60
2260;DHT22;333;48.800;9.530;2024-01-06T05:14:56;5.30;99.60
2260;DHT22;333;48.800;9.530;2024-01-06T05:17:23;5.40;99.60
2260;DHT22;333;48.800;9.530;2024-01-06T05:19:50;5.50;99.60
2260;DHT22;333;48.800;9.530;2024-01-06T05:22:17;5.50;99.60
2260;DHT22;333;48.800;9.530;2024-01-06T05:24:44;5.40;99.60
2260;DHT22;333;48.800;9.530;2024-01-06T05:27:13;5.50;99.60
2260;DHT22;333;48.800;9.530;2024-01-06T05:29:40;5.50;99.60
2260;DHT22;333;48.800;9.530;2024-01-06T05:32:07;5.50;99.60
2260;DHT22;333;48.800;9.530;2024-01-06T05:34:34;5.40;99.60
2260;DHT22;333;48.800;9.530;2024-01-06T05:37:03;5.50;99.60
2260;DHT22;333;48.800;9.530;2024-01-06T05:39:30;5.50;99.60
2260;DHT22;333;48.800;9.530;2024-01-06T05:41:57;5.40;99.60
2260;DHT22;333;48.800;9.530;2024-01-06T05:44:25;5.40;99.60
2260;DHT22;333;48.800;9.530;2024-01-06T05:46:52;5.40;99.60
2260;DHT22;333;48.800;9.530;2024-01-06T05:49:19;5.40;99.60
2260;DHT22;333;48.800;9.530;2024-01-06T05:51:46;5.30;99.60
2260;DHT22;333;48.800;9.530;2024-01-06T05:54:14;5.30;99.60
2260;DHT22;333;48.800;9.530;2024-01-06T05:56:40;5.20;99.60
2260;DHT22;333;48.800;9.530;2024-01-06T05:59:08;5.20;99.60
2260;DHT22;333;48.800;9.530;2024-01-06T06:01:36;5.30;99.60
2260;DHT22;333;48.800;9.530;2024-01-06T06:04:03;5.40;99.60
2260;DHT22;333;48.800;9.530;2024-01-06T06:06:30;5.30;99.60
2260;DHT22;333;48.800;9.530;2024-01-06T06:08:58;5.50;99.60
2260;DHT22;333;48.800;9.530;2024-01-06T06:11:25;5.50;99.60
2260;DHT22;333;48.800;9.530;2024-01-06T06:13:53;5.60;99.60
2260;DHT22;333;48.800;9.530;2024-01-06T06:16:22;5.70;99.60
2260;DHT22;333;48.800;9.530;2024-01-06T06:18:50;5.70;99.60
2260;DHT22;333;48.800;9.530;2024-01-06T06:21:17;5.80;99.60
2260;DHT22;333;48.800;9.530;2024-01-06T06:23:44;5.80;99.60
2260;DHT22;333;48.800;9.530;2024-01-06T06:26:11;5.70;99.60
2260;DHT22;333;48.800;9.530;2024-01-06T06:28:38;5.70;99.60
2260;DHT22;333;48.800;9.530;2024-01-06T06:31:06;5.60;99.60
2260;DHT22;333;48.800;9.530;2024-01-06T06:33:33;5.60;99.60
2260;DHT22;333;48.800;9.530;2024-01-06T06:36:02;5.70;99.60
2260;DHT22;333;48.800;9.530;2024-01-06T06:38:29;5.70;99.60
2260;DHT22;333;48.800;9.530;2024-01-06T06:40:56;5.70;99.60
2260;DHT22;333;48.800;9.530;2024-01-06T06:43:23;5.70;99.60
2260;DHT22;333;48.800;9.530;2024-01-06T06:45:50;5.60;99.60
2260;DHT22;333;48.800;9.530;2024-01-06T06:48:17;5.70;99.60
2260;DHT22;333;48.800;9.530;2024-01-06T06:50:44;5.70;99.60
2260;DHT22;333;48.800;9.530;2024-01-06T06:53:13;5.70;99.60
2260;DHT22;333;48.800;9.530;2024-01-06T06:55:40;5.80;99.60
2260;DHT22;333;48.800;9.530;2024-01-06T06:58:07;5.70;99.60
2260;DHT22;333;48.800;9.530;2024-01-06T07:00:34;5.90;99.60
2260;DHT22;333;48.800;9.530;2024-01-06T07:03:02;5.90;99.60
2260;DHT22;333;48.800;9.530;2024-01-06T07:05:29;5.80;99.60
2260;DHT22;333;48.800;9.530;2024-01-06T07:07:56;5.70;99.60
2260;DHT22;333;48.800;9.530;2024-01-06T07:10:24;5.70;99.60
2260;DHT22;333;48.800;9.530;2024-01-06T07:12:51;5.80;99.60
2260;DHT22;333;48.800;9.530;2024-01-06T07:15:19;5.70;99.60
2260;DHT22;333;48.800;9.530;2024-01-06T07:17:46;5.80;99.60
2260;DHT22;333;48.800;9.530;2024-01-06T07:20:13;5.70;99.60
2260;DHT22;333;48.800;9.530;2024-01-06T07:22:40;5.70;99.60
2260;DHT22;333;48.800;9.530;2024-01-06T07:25:07;5.70;99.60
2260;DHT22;333;48.800;9.530;2024-01-06T07:27:36;5.60;99.60
2260;DHT22;333;48.800;9.530;2024-01-06T07:30:04;5.60;99.60
2260;DHT22;333;48.800;9.530;2024-01-06T07:32:32;5.50;99.60
2260;DHT22;333;48.800;9.530;2024-01-06T07:34:59;5.40;99.60
2260;DHT22;333;48.800;9.530;2024-01-06T07:37:27;5.30;99.60
2260;DHT22;333;48.800;9.530;2024-01-06T07:39:54;5.30;99.60
2260;DHT22;333;48.800;9.530;2024-01-06T07:42:21;5.30;99.60
2260;DHT22;333;48.800;9.530;2024-01-06T07:44:50;5.30;99.60
2260;DHT22;333;48.800;9.530;2024-01-06T07:47:17;5.30;99.60
2260;DHT22;333;48.800;9.530;2024-01-06T07:49:44;5.30;99.60
2260;DHT22;333;48.800;9.530;2024-01-06T07:52:12;5.30;99.60
2260;DHT22;333;48.800;9.530;2024-01-06T07:54:40;5.30;99.60
2260;DHT22;333;48.800;9.530;2024-01-06T07:57:07;5.40;99.60
2260;DHT22;333;48.800;9.530;2024-01-06T07:59:34;5.40;99.60
2260;DHT22;333;48.800;9.530;2024-01-06T08:02:02;5.60;99.60
2260;DHT22;333;48.800;9.530;2024-01-06T08:04:29;5.60;99.60
2260;DHT22;333;48.800;9.530;2024-01-06T08:06:56;5.60;99.60
2260;DHT22;333;48.800;9.530;2024-01-06T08:09:23;5.70;99.60
2260;DHT22;333;48.800;9.530;2024-01-06T08:11:50;5.80;99.60
2260;DHT22;333;48.800;9.530;2024-01-06T08:14:17;5.80;99.60
2260;DHT22;333;48.800;9.530;2024-01-06T08:16:44;5.70;99.60
2260;DHT22;333;48.800;9.530;2024-01-06T08:19:13;5.70;99.60
2260;DHT22;333;48.800;9.530;2024-01-06T08:21:40;5.80;99.60
2260;DHT22;333;48.800;9.530;2024-01-06T08:24:07;5.80;99.60
2260;DHT22;333;48.800;9.530;2024-01-06T08:26:34;6.10;99.60
2260;DHT22;333;48.800;9.530;2024-01-06T08:29:01;6.10;99.60
2260;DHT22;333;48.800;9.530;2024-01-06T08:31:28;6.00;99.60
2260;DHT22;333;48.800;9.530;2024-01-06T08:33:55;6.00;99.60
2260;DHT22;333;48.800;9.530;2024-01-06T08:36:23;6.00;99.60
2260;DHT22;333;48.800;9.530;2024-01-06T08:38:51;6.10;99.60
2260;DHT22;333;48.800;9.530;2024-01-06T08:41:17;6.20;99.60
2260;DHT22;333;48.800;9.530;2024-01-06T08:43:44;6.30;99.60
2260;DHT22;333;48.800;9.530;2024-01-06T08:46:11;6.40;99.60
2260;DHT22;333;48.800;9.530;2024-01-06T08:48:38;6.40;99.60
2260;DHT22;333;48.800;9.530;2024-01-06T08:51:05;6.30;99.60
2260;DHT22;333;48.800;9.530;2024-01-06T08:53:34;6.40;99.60
2260;DHT22;333;48.800;9.530;2024-01-06T08:56:01;6.40;99.60
2260;DHT22;333;48.800;9.530;2024-01-06T08:58:28;6.40;99.60
2260;DHT22;333;48.800;9.530;2024-01-06T09:00:55;6.50;99.60
2260;DHT22;333;48.800;9.530;2024-01-06T09:03:22;6.70;99.60
2260;DHT22;333;48.800;9.530;2024-01-06T09:05:52;6.70;99.60
2260;DHT22;333;48.800;9.530;2024-01-06T09:08:19;6.70;99.60
2260;DHT22;333;48.800;9.530;2024-01-06T09:10:47;6.60;99.60
2260;DHT22;333;48.800;9.530;2024-01-06T09:13:17;6.60;99.60
2260;DHT22;333;48.800;9.530;2024-01-06T09:15:44;6.60;99.60
2260;DHT22;333;48.800;9.530;2024-01-06T09:18:11;6.50;99.60
2260;DHT22;333;48.800;9.530;2024-01-06T09:20:39;6.50;99.60
2260;DHT22;333;48.800;9.530;2024-01-06T09:23:06;6.60;99.60
2260;DHT22;333;48.800;9.530;2024-01-06T09:25:33;6.50;99.60
2260;DHT22;333;48.800;9.530;2024-01-06T09:28:02;6.40;99.60
2260;DHT22;333;48.800;9.530;2024-01-06T09:30:29;6.40;99.60
2260;DHT22;333;48.800;9.530;2024-01-06T09:32:56;6.40;99.60
2260;DHT22;333;48.800;9.530;2024-01-06T09:35:23;6.50;99.60
2260;DHT22;333;48.800;9.530;2024-01-06T09:37:50;6.50;99.60
2260;DHT22;333;48.800;9.530;2024-01-06T09:40:21;6.50;99.60
2260;DHT22;333;48.800;9.530;2024-01-06T09:42:49;6.50;99.60
2260;DHT22;333;48.800;9.530;2024-01-06T09:45:17;6.50;99.60
2260;DHT22;333;48.800;9.530;2024-01-06T09:47:49;6.70;99.60
2260;DHT22;333;48.800;9.530;2024-01-06T09:50:18;6.90;99.60
2260;DHT22;333;48.800;9.530;2024-01-06T09:52:47;6.90;99.60
2260;DHT22;333;48.800;9.530;2024-01-06T09:55:23;6.90;99.60
2260;DHT22;333;48.800;9.530;2024-01-06T09:57:50;7.00;99.60
2260;DHT22;333;48.800;9.530;2024-01-06T10:00:20;7.00;99.60
2260;DHT22;333;48.800;9.530;2024-01-06T10:02:48;6.90;99.60
2260;DHT22;333;48.800;9.530;2024-01-06T10:05:17;6.80;99.60
2260;DHT22;333;48.800;9.530;2024-01-06T10:07:45;6.80;99.60
2260;DHT22;333;48.800;9.530;2024-01-06T10:10:12;6.80;99.60
2260;DHT22;333;48.800;9.530;2024-01-06T10:12:41;6.80;99.60
2260;DHT22;333;48.800;9.530;2024-01-06T10:15:27;6.70;99.60
2260;DHT22;333;48.800;9.530;2024-01-06T10:17:54;6.60;99.60
2260;DHT22;333;48.800;9.530;2024-01-06T10:20:22;6.50;99.60
2260;DHT22;333;48.800;9.530;2024-01-06T10:22:51;6.40;99.60
2260;DHT22;333;48.800;9.530;2024-01-06T10:25:20;6.40;99.60
2260;DHT22;333;48.800;9.530;2024-01-06T10:27:49;6.50;99.60
2260;DHT22;333;48.800;9.530;2024-01-06T10:30:16;6.50;99.60
2260;DHT22;333;48.800;9.530;2024-01-06T10:32:45;6.50;99.60
2260;DHT22;333;48.800;9.530;2024-01-06T10:35:12;6.40;99.60
2260;DHT22;333;48.800;9.530;2024-01-06T10:37:42;6.50;99.60
2260;DHT22;333;48.800;9.530;2024-01-06T10:40:10;6.40;99.60
2260;DHT22;333;48.800;9.530;2024-01-06T10:42:38;6.50;99.60
2260;DHT22;333;48.800;9.530;2024-01-06T10:45:07;6.50;99.60
2260;DHT22;333;48.800;9.530;2024-01-06T10:47:35;6.50;99.60
2260;DHT22;333;48.800;9.530;2024-01-06T10:50:05;6.60;99.60
2260;DHT22;333;48.800;9.530;2024-01-06T10:52:34;6.70;99.60
2260;DHT22;333;48.800;9.530;2024-01-06T10:55:01;6.80;99.60
2260;DHT22;333;48.800;9.530;2024-01-06T10:57:29;7.00;99.60
2260;DHT22;333;48.800;9.530;2024-01-06T10:59:58;6.90;99.60
2260;DHT22;333;48.800;9.530;2024-01-06T11:02:25;6.90;99.60
2260;DHT22;333;48.800;9.530;2024-01-06T11:04:53;6.80;99.60
2260;DHT22;333;48.800;9.530;2024-01-06T11:07:24;6.80;99.60
2260;DHT22;333;48.800;9.530;2024-01-06T11:09:56;6.70;99.60
2260;DHT22;333;48.800;9.530;2024-01-06T11:12:24;6.50;99.60
2260;DHT22;333;48.800;9.530;2024-01-06T11:14:52;6.50;99.60
2260;DHT22;333;48.800;9.530;2024-01-06T11:17:49;6.40;99.60
2260;DHT22;333;48.800;9.530;2024-01-06T11:20:19;6.40;99.60
2260;DHT22;333;48.800;9.530;2024-01-06T11:22:48;6.50;99.60
2260;DHT22;333;48.800;9.530;2024-01-06T11:25:16;6.50;99.60
2260;DHT22;333;48.800;9.530;2024-01-06T11:27:46;6.50;99.60
2260;DHT22;333;48.800;9.530;2024-01-06T11:30:21;6.50;99.60
2260;DHT22;333;48.800;9.530;2024-01-06T11:32:51;6.30;99.60
2260;DHT22;333;48.800;9.530;2024-01-06T11:35:19;6.10;99.60
2260;DHT22;333;48.800;9.530;2024-01-06T11:37:55;6.10;99.60
2260;DHT22;333;48.800;9.530;2024-01-06T11:40:25;6.10;99.60
2260;DHT22;333;48.800;9.530;2024-01-06T11:43:01;5.90;99.60
2260;DHT22;333;48.800;9.530;2024-01-06T11:45:29;6.00;99.60
2260;DHT22;333;48.800;9.530;2024-01-06T11:47:57;5.90;99.60
2260;DHT22;333;48.800;9.530;2024-01-06T11:50:24;6.00;99.60
2260;DHT22;333;48.800;9.530;2024-01-06T11:52:53;6.10;99.60
2260;DHT22;333;48.800;9.530;2024-01-06T11:55:21;6.20;99.60
2260;DHT22;333;48.800;9.530;2024-01-06T11:57:48;6.30;99.60
2260;DHT22;333;48.800;9.530;2024-01-06T12:00:16;6.30;99.60
2260;DHT22;333;48.800;9.530;2024-01-06T12:02:44;6.20;99.60
2260;DHT22;333;48.800;9.530;2024-01-06T12:05:14;6.30;99.60
2260;DHT22;333;48.800;9.530;2024-01-06T12:07:44;6.20;99.60
2260;DHT22;333;48.800;9.530;2024-01-06T12:10:21;6.10;99.60
2260;DHT22;333;48.800;9.530;2024-01-06T12:12:56;6.20;99.60
2260;DHT22;333;48.800;9.530;2024-01-06T12:15:24;6.20;99.60
2260;DHT22;333;48.800;9.530;2024-01-06T12:17:51;6.10;99.60
2260;DHT22;333;48.800;9.530;2024-01-06T12:20:19;6.10;99.60
2260;DHT22;333;48.800;9.530;2024-01-06T12:22:46;6.10;99.60
2260;DHT22;333;48.800;9.530;2024-01-06T12:25:14;6.10;99.60
2260;DHT22;333;48.800;9.530;2024-01-06T12:27:44;6.10;99.60
2260;DHT22;333;48.800;9.530;2024-01-06T12:30:14;6.10;99.60
2260;DHT22;333;48.800;9.530;2024-01-06T12:32:45;6.10;99.60
2260;DHT22;333;48.800;9.530;2024-01-06T12:35:15;6.10;99.60
2260;DHT22;333;48.800;9.530;2024-01-06T12:37:42;6.10;99.60
2260;DHT22;333;48.800;9.530;2024-01-06T12:40:12;6.10;99.60
2260;DHT22;333;48.800;9.530;2024-01-06T12:42:40;6.00;99.60
2260;DHT22;333;48.800;9.530;2024-01-06T12:45:10;6.10;99.60
2260;DHT22;333;48.800;9.530;2024-01-06T12:47:38;6.00;99.60
2260;DHT22;333;48.800;9.530;2024-01-06T12:50:06;6.00;99.60
2260;DHT22;333;48.800;9.530;2024-01-06T12:52:34;6.00;99.60
2260;DHT22;333;48.800;9.530;2024-01-06T12:55:01;6.00;99.60
2260;DHT22;333;48.800;9.530;2024-01-06T12:57:29;5.90;99.60
2260;DHT22;333;48.800;9.530;2024-01-06T12:59:56;5.90;99.60
2260;DHT22;333;48.800;9.530;2024-01-06T13:02:24;6.00;99.60
2260;DHT22;333;48.800;9.530;2024-01-06T13:04:51;5.90;99.60
2260;DHT22;333;48.800;9.530;2024-01-06T13:07:18;6.00;99.60
2260;DHT22;333;48.800;9.530;2024-01-06T13:09:45;6.10;99.60
2260;DHT22;333;48.800;9.530;2024-01-06T13:12:12;6.10;99.60
2260;DHT22;333;48.800;9.530;2024-01-06T13:14:39;6.10;99.60
2260;DHT22;333;48.800;9.530;2024-01-06T13:17:08;6.10;99.60
2260;DHT22;333;48.800;9.530;2024-01-06T13:19:36;6.30;99.60
2260;DHT22;333;48.800;9.530;2024-01-06T13:22:03;6.50;99.60
2260;DHT22;333;48.800;9.530;2024-01-06T13:24:30;6.50;99.60
2260;DHT22;333;48.800;9.530;2024-01-06T13:26:57;6.50;99.60
2260;DHT22;333;48.800;9.530;2024-01-06T13:29:28;6.50;99.60
2260;DHT22;333;48.800;9.530;2024-01-06T13:31:55;6.50;99.60
2260;DHT22;333;48.800;9.530;2024-01-06T13:34:22;6.50;99.60
2260;DHT22;333;48.800;9.530;2024-01-06T13:36:51;6.60;99.60
2260;DHT22;333;48.800;9.530;2024-01-06T13:39:19;6.60;99.60
2260;DHT22;333;48.800;9.530;2024-01-06T13:41:46;6.50;99.60
2260;DHT22;333;48.800;9.530;2024-01-06T13:44:14;6.30;99.60
2260;DHT22;333;48.800;9.530;2024-01-06T13:46:41;6.00;99.60
2260;DHT22;333;48.800;9.530;2024-01-06T13:49:10;6.00;99.60
2260;DHT22;333;48.800;9.530;2024-01-06T13:51:37;6.00;99.60
2260;DHT22;333;48.800;9.530;2024-01-06T13:54:06;6.00;99.60
2260;DHT22;333;48.800;9.530;2024-01-06T13:56:33;6.00;99.60
2260;DHT22;333;48.800;9.530;2024-01-06T13:59:00;5.90;99.60
2260;DHT22;333;48.800;9.530;2024-01-06T14:01:27;6.00;99.60
2260;DHT22;333;48.800;9.530;2024-01-06T14:03:55;6.10;99.60
2260;DHT22;333;48.800;9.530;2024-01-06T14:06:24;6.10;99.60
2260;DHT22;333;48.800;9.530;2024-01-06T14:08:55;6.10;99.60
2260;DHT22;333;48.800;9.530;2024-01-06T14:11:23;6.00;99.60
2260;DHT22;333;48.800;9.530;2024-01-06T14:13:51;6.00;99.60
2260;DHT22;333;48.800;9.530;2024-01-06T14:16:18;6.10;99.60
2260;DHT22;333;48.800;9.530;2024-01-06T14:18:46;6.00;99.60
2260;DHT22;333;48.800;9.530;2024-01-06T14:21:13;6.00;99.60
2260;DHT22;333;48.800;9.530;2024-01-06T14:23:41;5.90;99.60
2260;DHT22;333;48.800;9.530;2024-01-06T14:26:08;5.90;99.60
2260;DHT22;333;48.800;9.530;2024-01-06T14:28:36;5.80;99.60
2260;DHT22;333;48.800;9.530;2024-01-06T14:31:03;5.80;99.60
2260;DHT22;333;48.800;9.530;2024-01-06T14:33:30;5.80;99.60
2260;DHT22;333;48.800;9.530;2024-01-06T14:35:58;5.90;99.60
2260;DHT22;333;48.800;9.530;2024-01-06T14:38:25;5.90;99.60
2260;DHT22;333;48.800;9.530;2024-01-06T14:40:52;6.10;99.60
2260;DHT22;333;48.800;9.530;2024-01-06T14:43:19;6.20;99.60
2260;DHT22;333;48.800;9.530;2024-01-06T14:45:48;6.10;99.60
2260;DHT22;333;48.800;9.530;2024-01-06T14:48:15;6.00;99.60
2260;DHT22;333;48.800;9.530;2024-01-06T14:50:42;6.00;99.60
2260;DHT22;333;48.800;9.530;2024-01-06T14:53:13;6.00;99.60
2260;DHT22;333;48.800;9.530;2024-01-06T14:55:40;6.10;99.60
2260;DHT22;333;48.800;9.530;2024-01-06T14:58:07;6.10;99.60
2260;DHT22;333;48.800;9.530;2024-01-06T15:00:35;6.00;99.60
2260;DHT22;333;48.800;9.530;2024-01-06T15:03:04;6.10;99.60
2260;DHT22;333;48.800;9.530;2024-01-06T15:05:31;6.10;99.60
2260;DHT22;333;48.800;9.530;2024-01-06T15:07:58;6.00;99.60
2260;DHT22;333;48.800;9.530;2024-01-06T15:10:25;6.10;99.60
2260;DHT22;333;48.800;9.530;2024-01-06T15:12:52;6.20;99.60
2260;DHT22;333;48.800;9.530;2024-01-06T15:15:19;6.20;99.60
2260;DHT22;333;48.800;9.530;2024-01-06T15:17:46;6.20;99.60
2260;DHT22;333;48.800;9.530;2024-01-06T15:20:16;6.20;99.60
2260;DHT22;333;48.800;9.530;2024-01-06T15:22:44;6.20;99.60
2260;DHT22;333;48.800;9.530;2024-01-06T15:25:11;6.10;99.60
2260;DHT22;333;48.800;9.530;2024-01-06T15:27:38;6.00;99.60
2260;DHT22;333;48.800;9.530;2024-01-06T15:30:06;6.10;99.60
2260;DHT22;333;48.800;9.530;2024-01-06T15:32:34;6.00;99.60
2260;DHT22;333;48.800;9.530;2024-01-06T15:35:04;6.00;99.60
2260;DHT22;333;48.800;9.530;2024-01-06T15:37:32;6.00;99.60
2260;DHT22;333;48.800;9.530;2024-01-06T15:39:59;5.90;99.60
2260;DHT22;333;48.800;9.530;2024-01-06T15:42:26;5.80;99.60
2260;DHT22;333;48.800;9.530;2024-01-06T15:44:54;5.90;99.60
2260;DHT22;333;48.800;9.530;2024-01-06T15:47:21;5.80;99.60
2260;DHT22;333;48.800;9.530;2024-01-06T15:49:48;5.80;99.60
2260;DHT22;333;48.800;9.530;2024-01-06T15:52:17;5.80;99.60
2260;DHT22;333;48.800;9.530;2024-01-06T15:54:48;5.80;99.60
2260;DHT22;333;48.800;9.530;2024-01-06T15:57:28;5.80;99.60
2260;DHT22;333;48.800;9.530;2024-01-06T15:59:56;5.80;99.60
2260;DHT22;333;48.800;9.530;2024-01-06T16:02:23;5.70;99.60
2260;DHT22;333;48.800;9.530;2024-01-06T16:04:50;5.80;99.60
2260;DHT22;333;48.800;9.530;2024-01-06T16:07:17;5.80;99.60
2260;DHT22;333;48.800;9.530;2024-01-06T16:09:45;5.70;99.60
2260;DHT22;333;48.800;9.530;2024-01-06T16:12:13;5.80;99.60
2260;DHT22;333;48.800;9.530;2024-01-06T16:14:42;5.80;99.60
2260;DHT22;333;48.800;9.530;2024-01-06T16:17:09;5.80;99.60
2260;DHT22;333;48.800;9.530;2024-01-06T16:19:36;5.70;99.60
2260;DHT22;333;48.800;9.530;2024-01-06T16:22:07;5.70;99.60
2260;DHT22;333;48.800;9.530;2024-01-06T16:24:37;5.80;99.60
2260;DHT22;333;48.800;9.530;2024-01-06T16:27:04;5.80;99.60
2260;DHT22;333;48.800;9.530;2024-01-06T16:29:35;5.80;99.60
2260;DHT22;333;48.800;9.530;2024-01-06T16:32:05;5.80;99.60
2260;DHT22;333;48.800;9.530;2024-01-06T16:34:32;5.70;99.60
2260;DHT22;333;48.800;9.530;2024-01-06T16:37:00;5.70;99.60
2260;DHT22;333;48.800;9.530;2024-01-06T16:39:27;5.70;99.60
2260;DHT22;333;48.800;9.530;2024-01-06T16:41:56;5.80;99.60